Time;durP1;ratioP1;P1;durP2;ratioP2;P2;SDS_P1;SDS_P2;PMS_P1;PMS_P2;Temp;Humidity;BMP_temperature;BMP_pressure;BME280_temperature;BME280_humidity;BME280_pressure;Samples;Min_cycle;Max_cycle;Signal;HPM_P1;HPM_P2
2022/01/12 00:02:07;;;;;;;;;55.75;40.50;;;;;4.35;65.22;103516.94;6241360;22;45156;-82
2022/01/12 00:04:32;;;;;;;;;52.25;40.25;;;;;4.41;65.30;103517.19;6241658;22;45446;-82
2022/01/12 00:06:58;;;;;;;;;57.75;41.25;;;;;4.42;65.54;103513.75;6241401;22;45170;-82
2022/01/12 00:09:23;;;;;;;;;52.50;40.00;;;;;4.42;65.56;103518.97;6242191;22;45606;-82
2022/01/12 00:11:49;;;;;;;;;61.00;41.75;;;;;4.45;65.56;103510.38;6213438;22;45800;-82
2022/01/12 00:14:14;;;;;;;;;58.25;43.50;;;;;4.47;64.88;103512.22;6241152;22;46313;-82
2022/01/12 00:16:46;;;;;;;;;59.25;42.75;;;;;4.47;65.27;103521.78;6241550;22;45194;-82
2022/01/12 00:19:11;;;;;;;;;58.50;43.25;;;;;4.48;65.38;103516.59;6241874;22;45214;-82
2022/01/12 00:21:36;;;;;;;;;51.75;41.75;;;;;4.49;65.49;103505.34;6241172;22;45251;-83
2022/01/12 00:24:02;;;;;;;;;55.00;41.00;;;;;4.53;65.36;103505.47;6241288;22;46186;-83
2022/01/12 00:34:30;;;;;;;;;56.25;42.75;;;;;4.53;65.19;103515.88;6241328;22;45302;-81
2022/01/12 00:36:55;;;;;;;;;49.25;40.00;;;;;4.47;65.45;103517.41;6241396;22;45379;-81
2022/01/12 00:39:21;;;;;;;;;60.75;45.50;;;;;4.43;65.08;103520.75;6213815;22;45233;-81
2022/01/12 00:41:47;;;;;;;;;59.75;42.25;;;;;4.44;65.22;103527.75;6241436;22;45405;-81
2022/01/12 00:44:22;;;;;;;;;54.75;39.25;;;;;4.49;65.19;103530.53;6240865;22;45149;-81
2022/01/12 00:46:50;;;;;;;;;57.25;39.50;;;;;4.48;65.32;103528.72;6241466;22;45269;-80
2022/01/12 00:49:15;;;;;;;;;59.25;41.75;;;;;4.49;65.06;103531.38;6241308;22;45143;-81
2022/01/12 00:51:40;;;;;;;;;59.25;42.00;;;;;4.49;65.31;103528.78;6241402;22;45452;-82
2022/01/12 00:54:09;;;;;;;;;54.75;41.25;;;;;4.49;65.69;103531.38;6241702;22;46187;-82
2022/01/12 00:56:35;;;;;;;;;59.25;41.00;;;;;4.52;65.47;103529.75;6241290;22;45779;-82
2022/01/12 00:59:00;;;;;;;;;60.50;44.75;;;;;4.55;64.84;103532.44;6241163;22;45199;-82
2022/01/12 01:01:26;;;;;;;;;60.75;42.75;;;;;4.54;65.40;103542.00;6242424;22;45124;-82
2022/01/12 01:03:52;;;;;;;;;59.25;43.00;;;;;4.52;65.57;103540.16;6215749;22;46067;-82
2022/01/12 01:06:19;;;;;;;;;55.75;42.25;;;;;4.55;65.18;103545.47;6243267;22;45202;-81
2022/01/12 01:08:48;;;;;;;;;63.00;43.00;;;;;4.52;65.14;103537.56;6243772;22;45202;-81
2022/01/12 01:11:13;;;;;;;;;55.25;43.00;;;;;4.56;65.27;103545.56;6242718;22;45556;-81
2022/01/12 01:13:48;;;;;;;;;55.25;42.75;;;;;4.55;65.38;103550.69;6242909;22;46091;-81
2022/01/12 01:16:23;;;;;;;;;60.25;44.00;;;;;4.50;65.15;103559.22;6243245;22;45302;-82
2022/01/12 01:27:08;;;;;;;;;63.00;47.50;;;;;4.36;65.12;103569.13;6242486;22;45219;-84
2022/01/12 01:29:34;;;;;;;;;65.50;47.00;;;;;4.30;65.34;103566.25;6243066;22;45140;-83
2022/01/12 01:31:59;;;;;;;;;59.00;41.00;;;;;4.30;65.08;103581.03;6243466;22;45167;-83
2022/01/12 01:34:27;;;;;;;;;59.50;43.00;;;;;4.25;65.08;103579.09;6243213;22;45987;-83
2022/01/12 01:36:55;;;;;;;;;54.50;42.75;;;;;4.19;64.99;103589.28;6243155;22;45820;-82
2022/01/12 01:39:23;;;;;;;;;66.75;49.00;;;;;4.20;65.46;103591.03;6243081;22;45302;-82
2022/01/12 01:41:52;;;;;;;;;51.25;37.75;;;;;4.22;65.02;103594.59;6242252;22;45175;-81
2022/01/12 01:54:56;;;;;;;;;71.00;47.25;;;;;4.19;65.69;103598.81;6242677;22;45318;-82
2022/01/12 01:57:24;;;;;;;;;57.25;42.00;;;;;4.21;65.96;103599.75;6242955;22;45274;-82
2022/01/12 01:59:50;;;;;;;;;60.00;45.50;;;;;4.21;66.07;103598.03;6215042;22;45412;-81
2022/01/12 02:02:15;;;;;;;;;58.75;46.00;;;;;4.25;65.89;103597.31;6242635;22;45365;-81
2022/01/12 02:04:40;;;;;;;;;64.75;45.25;;;;;4.28;65.60;103600.06;6242737;22;45330;-81
2022/01/12 02:07:06;;;;;;;;;68.25;47.25;;;;;4.27;66.07;103603.47;6242604;22;45148;-81
2022/01/12 02:09:34;;;;;;;;;60.50;47.25;;;;;4.29;65.73;103603.56;6242734;22;45210;-80
2022/01/12 02:12:00;;;;;;;;;66.25;46.25;;;;;4.34;66.07;103608.94;6242213;22;45378;-80
2022/01/12 02:14:25;;;;;;;;;64.75;47.75;;;;;4.37;66.28;103603.88;6242135;22;45506;-80
2022/01/12 02:16:57;;;;;;;;;60.00;46.75;;;;;4.38;65.77;103595.22;6242526;22;45379;-80
2022/01/12 02:35:55;;;;;;;;;55.50;43.25;;;;;4.49;66.08;103604.31;6242445;22;45171;-82
2022/01/12 02:40:50;;;;;;;;;61.50;45.25;;;;;4.55;65.96;103589.75;6242515;22;45266;-83
2022/01/12 02:53:52;;;;;;;;;62.75;46.75;;;;;4.61;65.60;103561.34;6242425;22;45352;-80
2022/01/12 02:56:22;;;;;;;;;60.00;45.50;;;;;4.63;65.72;103564.00;6242223;22;46092;-80
2022/01/12 02:58:49;;;;;;;;;68.50;48.50;;;;;4.62;65.97;103550.09;6241523;22;45150;-80
2022/01/12 03:04:01;;;;;;;;;64.25;47.00;;;;;4.64;65.87;103540.63;6242016;22;45233;-79
2022/01/12 03:06:32;;;;;;;;;66.00;47.50;;;;;4.67;65.88;103543.34;6241667;22;45404;-79
2022/01/12 03:08:59;;;;;;;;;61.25;46.00;;;;;4.63;65.87;103544.06;6242443;22;45667;-80
2022/01/12 03:11:26;;;;;;;;;60.75;46.00;;;;;4.62;65.74;103550.09;6242393;22;45167;-80
2022/01/12 03:13:52;;;;;;;;;63.00;46.75;;;;;4.63;65.82;103551.88;6242053;22;45404;-80
2022/01/12 03:16:20;;;;;;;;;61.50;44.25;;;;;4.66;65.49;103554.59;6242021;22;45318;-81
2022/01/12 03:18:52;;;;;;;;;67.50;46.75;;;;;4.69;65.71;103570.34;6241805;22;45194;-81
2022/01/12 03:21:21;;;;;;;;;61.00;42.25;;;;;4.69;65.29;103569.47;6242240;22;45341;-83
2022/01/12 03:23:47;;;;;;;;;60.25;46.00;;;;;4.70;65.66;103571.22;6241609;22;45437;-82
2022/01/12 03:26:13;;;;;;;;;57.25;43.25;;;;;4.72;65.77;103579.97;6241319;22;45181;-82
2022/01/12 03:28:40;;;;;;;;;56.50;43.00;;;;;4.68;64.89;103586.81;6241661;22;45152;-82
2022/01/12 03:31:13;;;;;;;;;63.50;44.75;;;;;4.64;65.31;103587.53;6242266;22;45205;-83
2022/01/12 03:39:05;;;;;;;;;59.00;43.00;;;;;4.52;65.15;103594.88;6241473;22;45250;-83
2022/01/12 03:41:33;;;;;;;;;55.25;40.75;;;;;4.49;65.38;103593.91;6242085;22;45298;-82
2022/01/12 03:44:01;;;;;;;;;55.00;42.25;;;;;4.45;65.73;103585.91;6240895;22;45320;-81
2022/01/12 03:46:31;;;;;;;;;57.50;40.50;;;;;4.44;65.85;103590.25;6241743;22;45429;-81
2022/01/12 03:48:57;;;;;;;;;54.00;41.25;;;;;4.48;65.43;103597.34;6242053;22;45354;-81
2022/01/12 03:51:23;;;;;;;;;52.00;42.50;;;;;4.44;65.58;103598.06;6242111;22;45222;-80
2022/01/12 03:53:48;;;;;;;;;58.75;44.25;;;;;4.43;65.22;103592.78;6241786;22;45074;-80
2022/01/12 03:56:13;;;;;;;;;55.25;44.50;;;;;4.42;65.87;103591.88;6242049;22;45368;-80
2022/01/12 03:58:39;;;;;;;;;52.50;41.75;;;;;4.39;65.59;103589.19;6214127;22;45329;-80
2022/01/12 04:01:04;;;;;;;;;60.00;45.50;;;;;4.41;65.72;103595.34;6241742;22;45142;-80
2022/01/12 04:03:36;;;;;;;;;59.50;43.25;;;;;4.44;66.05;103611.09;6241746;22;45153;-78
2022/01/12 04:08:46;;;;;;;;;56.75;39.50;;;;;4.48;66.22;103612.97;6241532;22;45294;-80
2022/01/12 04:11:11;;;;;;;;;59.00;42.00;;;;;4.51;65.96;103620.03;6241858;22;45496;-79
2022/01/12 04:13:36;;;;;;;;;60.00;44.50;;;;;4.51;65.73;103617.44;6241252;22;45215;-79
2022/01/12 04:16:05;;;;;;;;;57.50;42.75;;;;;4.57;65.76;103627.19;6241647;22;45257;-83
2022/01/12 04:18:31;;;;;;;;;58.75;41.25;;;;;4.56;66.09;103633.22;6242055;22;46048;-82
2022/01/12 04:21:00;;;;;;;;;54.00;41.50;;;;;4.56;65.94;103635.84;6241774;22;45325;-81
2022/01/12 04:23:25;;;;;;;;;54.75;42.00;;;;;4.59;65.88;103643.78;6241450;22;45407;-80
2022/01/12 04:25:57;;;;;;;;;64.75;45.25;;;;;4.56;66.09;103635.84;6241533;22;45230;-79
2022/01/12 04:28:24;;;;;;;;;60.50;44.25;;;;;4.56;65.85;103652.38;6241214;22;45258;-79
2022/01/12 04:30:51;;;;;;;;;54.25;41.50;;;;;4.57;65.83;103655.84;6241904;22;45238;-79
2022/01/12 04:33:17;;;;;;;;;52.50;42.75;;;;;4.53;65.49;103652.25;6241315;22;45386;-79
2022/01/12 04:35:54;;;;;;;;;58.50;44.75;;;;;4.40;65.88;103643.03;6241849;22;45394;-79
2022/01/12 04:38:22;;;;;;;;;56.00;39.25;;;;;4.37;65.54;103656.81;6243509;22;45776;-81
2022/01/12 04:40:48;;;;;;;;;64.25;46.00;;;;;4.34;65.79;103656.72;6243780;22;45198;-80
2022/01/12 04:43:14;;;;;;;;;62.25;44.25;;;;;4.31;65.75;103669.59;6243111;22;45223;-80
2022/01/12 04:50:42;;;;;;;;;55.50;42.00;;;;;4.33;66.29;103674.88;6243595;22;45398;-80
2022/01/12 04:53:08;;;;;;;;;54.50;43.75;;;;;4.34;65.82;103671.44;6243698;22;45132;-82
2022/01/12 04:55:34;;;;;;;;;61.25;44.50;;;;;4.35;65.72;103657.59;6243481;22;45147;-82
2022/01/12 04:58:00;;;;;;;;;59.50;42.75;;;;;4.32;66.58;103662.69;6243241;22;45177;-84
2022/01/12 05:00:27;;;;;;;;;53.50;42.00;;;;;4.34;66.20;103681.88;6215765;22;45259;-84
2022/01/12 05:08:38;;;;;;;;;51.75;40.00;;;;;4.32;66.36;103668.75;6243049;22;45930;-86
2022/01/12 05:13:51;;;;;;;;;56.00;40.00;;;;;4.40;66.01;103682.09;6242700;22;45274;-84
2022/01/12 05:16:18;;;;;;;;;59.75;46.25;;;;;4.42;66.06;103688.25;6242966;22;45360;-85
2022/01/12 05:18:46;;;;;;;;;57.50;41.25;;;;;4.42;66.11;103688.25;6243029;22;45231;-85
2022/01/12 05:21:13;;;;;;;;;60.25;44.00;;;;;4.42;66.31;103684.78;6215608;22;45183;-84
2022/01/12 05:23:39;;;;;;;;;59.00;43.25;;;;;4.42;66.15;103693.47;6242967;22;45474;-82
2022/01/12 05:26:05;;;;;;;;;54.50;42.50;;;;;4.42;66.18;103679.59;6242837;22;45196;-82
2022/01/12 05:28:32;;;;;;;;;56.75;42.50;;;;;4.48;66.26;103685.91;6242781;22;45258;-82
2022/01/12 05:30:57;;;;;;;;;55.00;43.25;;;;;4.47;66.28;103676.31;6243323;22;45377;-83
2022/01/12 05:33:24;;;;;;;;;59.50;40.25;;;;;4.50;66.20;103667.75;6243287;22;45493;-82
2022/01/12 05:35:51;;;;;;;;;53.00;40.50;;;;;4.50;66.19;103657.31;6215497;22;46934;-81
2022/01/12 05:38:17;;;;;;;;;50.00;39.50;;;;;4.56;66.11;103669.72;6242982;22;45244;-82
2022/01/12 05:40:46;;;;;;;;;58.00;42.00;;;;;4.47;65.55;103663.28;6242798;22;45139;-79
2022/01/12 05:43:24;;;;;;;;;55.75;40.25;;;;;4.47;66.21;103658.09;6242042;22;45397;-80
2022/01/12 05:45:51;;;;;;;;;57.00;39.50;;;;;4.52;66.39;103665.22;6242847;22;45408;-84
2022/01/12 05:50:42;;;;;;;;;55.50;42.75;;;;;4.57;66.44;103663.66;6239359;22;45245;-77
2022/01/12 05:53:09;;;;;;;;;57.25;42.50;;;;;4.60;66.23;103663.78;6242013;22;45428;-77
2022/01/12 05:55:34;;;;;;;;;60.25;42.25;;;;;4.61;66.07;103668.19;6242506;22;45229;-77
2022/01/12 05:58:00;;;;;;;;;62.00;40.00;;;;;4.60;66.22;103663.78;6242031;22;45242;-77
2022/01/12 06:00:27;;;;;;;;;56.00;41.75;;;;;4.66;66.45;103665.75;6239966;22;45207;-81
2022/01/12 06:02:54;;;;;;;;;57.50;42.25;;;;;4.66;66.33;103671.84;6242101;22;45324;-82
2022/01/12 06:05:21;;;;;;;;;56.00;42.50;;;;;4.69;66.30;103684.13;6241306;22;45756;-81
2022/01/12 06:07:51;;;;;;;;;56.75;43.25;;;;;4.68;66.14;103687.53;6242569;22;45160;-81
2022/01/12 06:10:18;;;;;;;;;56.75;39.50;;;;;4.69;66.25;103694.53;6242081;22;45378;-76
2022/01/12 06:12:44;;;;;;;;;59.00;44.25;;;;;4.71;65.83;103696.38;6240990;22;45586;-76
2022/01/12 06:15:10;;;;;;;;;54.75;42.25;;;;;4.67;65.75;103689.25;6241665;22;45410;-76
2022/01/12 06:17:37;;;;;;;;;49.50;40.25;;;;;4.68;66.09;103690.16;6241458;22;45243;-76
2022/01/12 06:20:04;;;;;;;;;58.50;42.25;;;;;4.65;65.61;103693.50;6241429;22;45109;-77
2022/01/12 06:22:30;;;;;;;;;55.50;37.25;;;;;4.59;65.90;103688.94;6240774;22;45456;-76
2022/01/12 06:24:57;;;;;;;;;56.50;42.00;;;;;4.55;65.45;103678.34;6241036;22;45730;-76
2022/01/12 06:27:27;;;;;;;;;57.75;42.25;;;;;4.47;65.58;103683.25;6239581;22;45861;-77
2022/01/12 06:32:21;;;;;;;;;54.25;41.50;;;;;4.37;66.28;103679.41;6240307;22;45176;-76
2022/01/12 06:34:47;;;;;;;;;44.25;38.50;;;;;4.42;66.39;103674.38;6241231;22;45829;-77
2022/01/12 06:37:13;;;;;;;;;52.75;40.00;;;;;4.43;66.28;103677.03;6241158;22;45282;-77
2022/01/12 06:39:39;;;;;;;;;42.25;33.25;;;;;4.47;66.11;103686.72;6240956;22;45365;-77
2022/01/12 06:42:04;;;;;;;;;58.25;42.25;;;;;4.46;65.99;103686.69;6240773;22;45242;-76
2022/01/12 06:44:30;;;;;;;;;62.00;46.75;;;;;4.45;65.92;103683.19;6213251;22;47073;-76
2022/01/12 06:46:58;;;;;;;;;52.25;40.75;;;;;4.42;65.81;103692.59;6241371;22;45383;-76
2022/01/12 06:49:23;;;;;;;;;57.75;40.75;;;;;4.44;65.90;103703.97;6240128;22;45301;-77
2022/01/12 06:51:49;;;;;;;;;54.75;38.25;;;;;4.41;66.21;103706.44;6213199;22;45912;-76
2022/01/12 06:54:18;;;;;;;;;51.75;39.25;;;;;4.44;66.54;103696.16;6213506;22;46152;-77
2022/01/12 06:56:43;;;;;;;;;50.75;37.50;;;;;4.45;66.29;103709.22;6241045;22;45356;-76
2022/01/12 06:59:09;;;;;;;;;46.25;38.25;;;;;4.45;66.48;103703.13;6240632;22;45391;-76
2022/01/12 07:01:34;;;;;;;;;53.00;39.50;;;;;4.44;66.20;103694.44;6241140;22;45357;-76
2022/01/12 07:04:00;;;;;;;;;48.75;38.25;;;;;4.47;66.32;103704.97;6240872;22;45306;-76
2022/01/12 07:06:25;;;;;;;;;49.25;38.50;;;;;4.46;66.29;103703.22;6241648;22;45341;-80
2022/01/12 07:08:51;;;;;;;;;59.50;42.00;;;;;4.46;65.82;103703.22;6242163;22;45338;-77
2022/01/12 07:11:17;;;;;;;;;55.50;41.00;;;;;4.44;65.75;103703.97;6241934;22;45156;-77
2022/01/12 07:13:43;;;;;;;;;53.75;38.25;;;;;4.44;66.10;103698.75;6240912;22;45182;-77
2022/01/12 07:16:09;;;;;;;;;73.75;53.25;;;;;4.40;65.79;103689.91;6242317;22;45677;-76
2022/01/12 07:18:34;;;;;;;;;62.25;44.75;;;;;4.43;65.85;103682.25;6242176;22;45420;-77
2022/01/12 07:21:00;;;;;;;;;65.75;45.75;;;;;4.40;65.75;103682.09;6241942;22;45178;-77
2022/01/12 07:23:26;;;;;;;;;67.75;50.50;;;;;4.38;66.11;103678.56;6241339;22;46065;-77
2022/01/12 07:25:52;;;;;;;;;56.00;41.75;;;;;4.30;65.46;103685.19;6240903;22;45799;-77
2022/01/12 07:28:18;;;;;;;;;51.50;39.50;;;;;4.21;65.87;103675.25;6241824;22;45232;-77
2022/01/12 07:30:44;;;;;;;;;56.75;38.50;;;;;4.19;66.00;103680.41;6241714;22;45486;-77
2022/01/12 07:33:09;;;;;;;;;58.75;43.75;;;;;4.18;65.89;103677.72;6241767;22;46257;-77
2022/01/12 07:35:35;;;;;;;;;58.25;44.25;;;;;4.21;66.08;103699.59;6214341;22;45293;-77
2022/01/12 07:38:00;;;;;;;;;54.00;42.00;;;;;4.19;66.42;103703.84;6242134;22;45167;-77
2022/01/12 07:40:26;;;;;;;;;59.50;41.25;;;;;4.21;66.30;103714.31;6214598;22;46980;-77
2022/01/12 07:42:51;;;;;;;;;59.25;45.50;;;;;4.23;65.95;103721.38;6214058;22;46772;-77
2022/01/12 07:45:18;;;;;;;;;55.75;39.00;;;;;4.27;66.51;103717.19;6242067;22;45153;-77
2022/01/12 07:47:43;;;;;;;;;59.00;46.00;;;;;4.31;66.40;103731.22;6241907;22;45219;-77
2022/01/12 07:50:10;;;;;;;;;55.50;41.50;;;;;4.34;66.11;103744.38;6241878;22;45256;-77
2022/01/12 07:52:36;;;;;;;;;59.50;41.75;;;;;4.31;66.33;103733.81;6241271;22;46165;-77
2022/01/12 07:55:03;;;;;;;;;58.50;43.00;;;;;4.33;66.76;103738.25;6241385;22;45275;-77
2022/01/12 07:57:29;;;;;;;;;55.75;42.00;;;;;4.35;66.41;103740.91;6242066;22;45379;-77
2022/01/12 07:59:54;;;;;;;;;61.50;44.00;;;;;4.37;66.16;103745.38;6241231;22;45363;-77
2022/01/12 08:02:20;;;;;;;;;54.50;44.75;;;;;4.31;66.02;103749.44;6241562;22;45362;-77
2022/01/12 08:04:46;;;;;;;;;58.00;44.50;;;;;4.33;66.44;103748.69;6241580;22;45503;-77
2022/01/12 08:07:11;;;;;;;;;54.50;42.25;;;;;4.36;66.19;103747.94;6242095;22;45136;-77
2022/01/12 08:09:41;;;;;;;;;64.50;46.00;;;;;4.42;65.97;103753.38;6240871;22;45208;-77
2022/01/12 08:12:07;;;;;;;;;59.75;43.25;;;;;4.35;65.83;103744.44;6240936;22;45553;-77
2022/01/12 08:14:33;;;;;;;;;60.00;44.50;;;;;4.32;66.09;103751.22;6241268;22;45307;-77
2022/01/12 08:16:59;;;;;;;;;61.75;41.50;;;;;4.33;66.19;103755.59;6241251;22;45779;-77
2022/01/12 08:19:25;;;;;;;;;65.00;47.00;;;;;4.35;65.77;103764.38;6241646;22;45310;-77
2022/01/12 08:21:51;;;;;;;;;60.25;43.00;;;;;4.30;65.97;103763.31;6241266;22;46112;-77
2022/01/12 08:24:16;;;;;;;;;67.25;48.25;;;;;4.29;65.85;103778.03;6241403;22;45175;-77
2022/01/12 08:26:43;;;;;;;;;70.50;50.00;;;;;4.25;66.36;103792.63;6241248;22;45291;-76
2022/01/12 08:29:10;;;;;;;;;63.50;46.00;;;;;4.23;66.22;103789.06;6240916;22;45325;-77
2022/01/12 08:31:36;;;;;;;;;63.25;43.00;;;;;4.21;66.19;103793.31;6241135;22;45369;-78
2022/01/12 08:34:02;;;;;;;;;56.00;41.25;;;;;4.17;66.03;103796.63;6241809;22;45338;-77
2022/01/12 08:36:27;;;;;;;;;60.50;46.50;;;;;4.19;66.83;103797.59;6241491;22;45301;-77
2022/01/12 08:38:52;;;;;;;;;56.25;42.25;;;;;4.23;66.43;103803.78;6241419;22;45443;-77
2022/01/12 08:41:18;;;;;;;;;65.50;46.25;;;;;4.25;66.76;103796.94;6241585;22;46140;-77
2022/01/12 08:43:43;;;;;;;;;53.25;42.25;;;;;4.28;66.49;103803.19;6240521;22;45286;-77
2022/01/12 08:46:09;;;;;;;;;64.00;42.50;;;;;4.30;66.86;103808.44;6241769;22;45316;-76
2022/01/12 08:48:35;;;;;;;;;61.75;47.00;;;;;4.35;66.87;103819.06;6241347;22;45420;-77
2022/01/12 08:51:02;;;;;;;;;65.00;47.00;;;;;4.41;66.04;103829.75;6241006;22;46078;-77
2022/01/12 08:53:28;;;;;;;;;62.50;47.00;;;;;4.38;66.40;103824.41;6241145;22;45711;-77
2022/01/12 08:55:53;;;;;;;;;63.00;44.50;;;;;4.37;66.70;103823.50;6240880;22;45231;-77
2022/01/12 09:00:53;;;;;;;;;23.75;18.00;;;;;5.74;77.71;103805.41;5076232;27;45476;-76
2022/01/12 09:03:18;;;;;;;;;22.00;17.50;;;;;7.38;75.96;103790.78;5059173;27;45604;-77
2022/01/12 09:05:44;;;;;;;;;25.25;20.50;;;;;8.98;73.31;103795.84;5055492;28;45450;-76
2022/01/12 09:08:09;;;;;;;;;26.25;18.25;;;;;10.40;71.26;103802.13;5058314;28;45406;-77
2022/01/12 09:10:35;;;;;;;;;17.50;16.50;;;;;11.64;68.77;103797.75;5058572;28;45271;-78
2022/01/12 09:13:00;;;;;;;;;19.00;15.75;;;;;12.71;66.87;103799.69;5057515;28;45304;-78
2022/01/12 09:15:26;;;;;;;;;18.00;14.75;;;;;13.66;64.52;103801.06;5055850;27;45482;-79
2022/01/12 09:17:56;;;;;;;;;18.25;14.00;;;;;14.52;62.76;103811.75;5044934;28;45230;-78
2022/01/12 09:20:22;;;;;;;;;22.50;18.00;;;;;15.25;61.34;103815.19;5055791;28;46137;-78
2022/01/12 09:22:48;;;;;;;;;17.25;15.50;;;;;15.88;59.97;103820.22;5055706;28;45276;-79
2022/01/12 09:25:14;;;;;;;;;21.25;14.50;;;;;16.42;58.88;103819.81;5056899;28;46014;-78
2022/01/12 09:27:40;;;;;;;;;14.75;13.75;;;;;16.92;57.89;103828.22;5055165;28;45474;-79
2022/01/12 09:30:09;;;;;;;;;14.50;13.00;;;;;17.36;56.96;103839.25;5055369;28;45449;-75
2022/01/12 09:32:34;;;;;;;;;17.00;11.50;;;;;17.72;55.68;103833.50;5055695;28;45708;-76
2022/01/12 09:35:00;;;;;;;;;16.00;13.00;;;;;18.05;54.77;103846.31;5055424;28;45334;-78
2022/01/12 09:37:25;;;;;;;;;12.25;10.50;;;;;18.36;54.24;103844.97;5054274;28;45523;-79
2022/01/12 09:39:51;;;;;;;;;15.50;11.75;;;;;18.64;53.48;103856.94;5052573;28;46910;-76
2022/01/12 09:42:17;;;;;;;;;14.75;12.50;;;;;18.86;52.87;103867.22;5055773;28;45734;-76
2022/01/12 09:44:47;;;;;;;;;18.25;14.75;;;;;19.07;52.48;103868.59;5047755;28;45346;-77
2022/01/12 09:47:22;;;;;;;;;14.50;10.50;;;;;19.28;51.84;103874.44;5052555;28;46399;-76
2022/01/12 09:49:47;;;;;;;;;16.00;13.75;;;;;19.42;51.05;103876.81;5055510;28;45447;-76
2022/01/12 09:52:14;;;;;;;;;14.75;13.75;;;;;19.58;50.53;103871.19;5055711;28;45414;-77
2022/01/12 09:54:40;;;;;;;;;13.25;11.00;;;;;19.70;50.05;103872.69;5054981;28;45331;-76
2022/01/12 09:57:06;;;;;;;;;13.50;12.75;;;;;19.82;49.87;103867.97;5055147;28;45309;-77
2022/01/12 09:59:31;;;;;;;;;15.00;12.75;;;;;19.91;49.28;103875.78;5063881;28;45421;-77
2022/01/12 10:01:58;;;;;;;;;13.25;11.50;;;;;19.99;48.92;103871.16;5075737;28;45252;-77
2022/01/12 10:04:26;;;;;;;;;13.25;12.75;;;;;20.08;48.98;103872.72;5069955;28;45677;-77
2022/01/12 10:07:04;;;;;;;;;15.50;13.50;;;;;20.16;48.88;103871.69;5062241;28;45407;-77
2022/01/12 10:09:35;;;;;;;;;17.50;13.00;;;;;20.21;48.67;103862.66;5074195;28;45773;-78
2022/01/12 10:12:05;;;;;;;;;21.00;14.00;;;;;20.28;48.24;103859.81;5062693;28;45429;-77
2022/01/12 10:14:41;;;;;;;;;14.00;12.50;;;;;20.32;47.95;103864.19;5054747;28;45319;-77
2022/01/12 10:17:08;;;;;;;;;15.50;12.50;;;;;20.37;48.04;103864.06;5057229;28;45344;-78
2022/01/12 10:19:33;;;;;;;;;17.00;13.00;;;;;20.39;47.92;103865.78;5060320;28;46477;-77
2022/01/12 10:22:02;;;;;;;;;18.75;15.00;;;;;20.43;47.48;103869.25;5061071;28;45204;-79
2022/01/12 10:27:51;;;;;;;;;54.00;41.75;;;;;18.77;41.61;103882.44;5112026;27;45759;-76
2022/01/12 10:30:28;;;;;;;;;58.00;43.00;;;;;17.15;42.20;103888.22;5098745;27;45868;-76
2022/01/12 10:33:08;;;;;;;;;59.25;43.00;;;;;15.69;43.34;103890.13;5096896;27;45295;-76
2022/01/12 10:35:37;;;;;;;;;60.50;44.75;;;;;14.60;44.53;103888.53;5096611;27;45535;-76
2022/01/12 10:38:06;;;;;;;;;58.50;45.25;;;;;13.69;45.16;103891.84;5088841;27;45494;-76
2022/01/12 10:40:45;;;;;;;;;67.50;50.00;;;;;12.83;45.92;103892.16;5092199;27;45231;-76
2022/01/12 10:43:36;;;;;;;;;64.75;50.50;;;;;12.03;47.07;103891.34;5096777;27;45385;-76
2022/01/12 10:46:26;;;;;;;;;61.00;47.25;;;;;11.36;48.41;103903.63;5084956;27;45431;-76
2022/01/12 10:48:53;;;;;;;;;63.50;46.00;;;;;10.86;49.17;103903.78;5085507;27;45646;-76
2022/01/12 10:51:29;;;;;;;;;64.25;48.50;;;;;10.35;49.32;103899.34;5095724;27;45437;-76
2022/01/12 10:54:00;;;;;;;;;60.50;46.75;;;;;9.89;49.68;103894.94;5095191;27;45239;-76
2022/01/12 10:56:27;;;;;;;;;61.00;45.25;;;;;9.55;50.67;103894.22;5088608;27;45330;-76
2022/01/12 10:58:54;;;;;;;;;68.75;50.75;;;;;9.26;51.52;103895.28;5095369;27;45492;-76
2022/01/12 11:01:23;;;;;;;;;60.50;47.75;;;;;8.97;52.22;103898.09;5095984;27;45455;-76
2022/01/12 11:03:48;;;;;;;;;65.00;49.75;;;;;8.66;52.18;103898.22;5096855;27;45362;-76
2022/01/12 11:06:15;;;;;;;;;70.00;49.75;;;;;8.42;52.94;103907.19;5096127;27;45488;-76
2022/01/12 11:08:43;;;;;;;;;68.75;50.50;;;;;8.15;53.49;103906.44;5096402;27;45466;-76
2022/01/12 11:11:09;;;;;;;;;68.00;53.00;;;;;7.94;54.11;103904.09;5094291;27;45237;-76
2022/01/12 11:13:35;;;;;;;;;66.75;49.50;;;;;7.80;54.93;103916.78;5085040;27;45458;-76
2022/01/12 11:16:01;;;;;;;;;69.50;52.50;;;;;7.65;55.57;103915.47;5081963;27;45398;-76
2022/01/12 11:18:33;;;;;;;;;68.75;50.50;;;;;7.53;55.86;103919.47;5094776;27;45419;-75
2022/01/12 11:21:03;;;;;;;;;68.50;52.00;;;;;7.49;55.64;103919.31;5096265;27;45744;-75
2022/01/12 11:23:37;;;;;;;;;63.25;50.75;;;;;7.40;56.42;103918.22;5096164;27;45410;-76
2022/01/12 11:26:19;;;;;;;;;70.25;51.25;;;;;7.36;56.37;103911.09;5094099;27;46908;-76
2022/01/12 11:28:47;;;;;;;;;67.25;51.00;;;;;7.32;56.23;103911.84;5090345;27;46256;-76
2022/01/12 11:31:19;;;;;;;;;72.50;51.25;;;;;7.29;56.61;103912.63;5095909;27;45837;-76
2022/01/12 11:33:45;;;;;;;;;70.00;53.00;;;;;7.22;57.18;103904.53;5095753;27;45230;-76
2022/01/12 11:36:28;;;;;;;;;73.50;55.50;;;;;7.20;57.71;103909.72;5095863;27;45409;-77
2022/01/12 11:39:05;;;;;;;;;67.25;51.00;;;;;7.14;57.62;103907.78;5083401;27;45413;-77
2022/01/12 11:41:32;;;;;;;;;71.00;52.50;;;;;7.11;57.42;103905.09;5069126;28;45195;-77
2022/01/12 11:44:04;;;;;;;;;72.00;52.50;;;;;7.05;58.02;103900.53;5082007;27;45838;-77
2022/01/12 11:46:52;;;;;;;;;71.25;54.25;;;;;7.05;57.90;103902.25;5081546;28;45409;-77
2022/01/12 11:49:39;;;;;;;;;73.00;55.00;;;;;7.04;58.35;103898.75;5072196;27;45542;-77
2022/01/12 11:52:23;;;;;;;;;66.75;50.50;;;;;7.08;58.92;103898.03;5081425;28;45435;-77
2022/01/12 11:54:52;;;;;;;;;71.00;54.00;;;;;7.09;58.54;103893.66;5082436;27;45467;-77
2022/01/12 11:57:19;;;;;;;;;73.75;54.00;;;;;7.11;58.38;103892.00;5082031;28;45203;-77
2022/01/12 12:00:10;;;;;;;;;69.75;51.75;;;;;7.12;58.81;103883.28;5089007;27;45581;-77
2022/01/12 12:02:44;;;;;;;;;71.25;53.75;;;;;7.13;58.79;103877.25;5083391;27;45747;-77
2022/01/12 12:05:11;;;;;;;;;65.75;50.75;;;;;7.14;58.37;103867.63;5082115;27;45449;-77
2022/01/12 12:07:51;;;;;;;;;71.25;53.75;;;;;7.16;58.95;103874.69;5081807;27;45370;-77
2022/01/12 12:10:23;;;;;;;;;75.75;54.25;;;;;7.15;58.58;103867.72;5094290;27;47030;-77
2022/01/12 12:12:53;;;;;;;;;69.50;51.50;;;;;7.18;58.61;103873.06;5081559;27;45734;-77
2022/01/12 12:15:21;;;;;;;;;70.50;52.00;;;;;7.20;58.73;103876.59;5095015;27;45313;-77
2022/01/12 12:17:46;;;;;;;;;72.75;52.00;;;;;7.23;58.93;103880.16;5088038;27;45456;-77
2022/01/12 12:20:14;;;;;;;;;74.00;53.75;;;;;7.27;59.00;103887.25;5081074;27;45948;-76
2022/01/12 12:22:42;;;;;;;;;70.25;53.00;;;;;7.26;58.68;103883.72;5081716;27;45393;-76
2022/01/12 12:25:08;;;;;;;;;71.00;54.25;;;;;7.31;59.07;103886.50;5081653;27;45518;-77
2022/01/12 12:27:35;;;;;;;;;67.75;51.75;;;;;7.31;59.09;103865.56;5081012;27;45440;-77
2022/01/12 12:30:05;;;;;;;;;71.50;50.75;;;;;7.35;59.07;103859.59;5092689;27;46600;-76
2022/01/12 12:32:43;;;;;;;;;72.50;53.00;;;;;7.40;58.90;103863.25;5082697;27;45226;-77
2022/01/12 12:35:12;;;;;;;;;68.75;53.00;;;;;7.46;59.12;103866.91;5081467;27;45243;-76
2022/01/12 12:37:43;;;;;;;;;74.50;54.75;;;;;7.46;58.63;103859.06;5081527;27;45445;-77
2022/01/12 12:40:11;;;;;;;;;68.00;50.00;;;;;7.50;58.84;103853.06;5080404;27;45389;-76
2022/01/12 12:42:38;;;;;;;;;69.25;52.25;;;;;7.50;59.10;103842.59;5081183;28;45160;-77
2022/01/12 12:45:04;;;;;;;;;73.75;54.75;;;;;7.51;59.31;103839.13;5093105;27;45351;-77
2022/01/12 12:47:31;;;;;;;;;71.50;55.75;;;;;7.53;59.60;103832.22;5081323;27;45430;-77
2022/01/12 12:50:00;;;;;;;;;67.25;53.00;;;;;7.60;59.13;103828.94;5080050;27;46266;-77
2022/01/12 12:52:31;;;;;;;;;70.50;55.00;;;;;7.62;58.72;103816.78;5081207;28;45726;-77